createdAt,value
2019-04-22T00:02:20.727Z,12.10
2019-04-22T00:07:51.476Z,12.00
2019-04-22T00:12:57.438Z,11.90
2019-04-22T00:18:03.302Z,11.80
2019-04-22T00:22:56.623Z,11.60
2019-04-22T00:28:02.409Z,11.50
2019-04-22T00:33:11.221Z,11.50
2019-04-22T00:38:20.389Z,11.50
2019-04-22T00:43:19.427Z,11.60
2019-04-22T00:48:48.667Z,11.60
2019-04-22T00:58:31.175Z,11.60
2019-04-22T01:03:34.187Z,11.50
2019-04-22T01:08:40.474Z,11.30
2019-04-22T01:13:38.760Z,11.20
2019-04-22T01:18:43.693Z,11.00
2019-04-22T01:23:47.759Z,10.90
2019-04-22T01:28:42.235Z,10.80
2019-04-22T01:33:40.198Z,10.50
2019-04-22T01:38:58.301Z,10.30
2019-04-22T01:44:19.419Z,10.10
2019-04-22T01:49:19.732Z,10.00
2019-04-22T01:54:23.629Z,9.90
2019-04-22T01:59:12.637Z,9.80
2019-04-22T02:04:26.933Z,9.70
2019-04-22T02:09:31.156Z,9.70
2019-04-22T02:14:37.355Z,9.70
2019-04-22T02:19:53.196Z,9.60
2019-04-22T02:24:39.960Z,9.50
2019-04-22T02:29:44.457Z,9.40
2019-04-22T02:35:01.985Z,9.30
2019-04-22T02:39:55.402Z,9.30
2019-04-22T02:45:09.096Z,9.30
2019-04-22T02:50:05.217Z,9.20
2019-04-22T03:05:19.617Z,9.10
2019-04-22T03:10:18.861Z,9.00
2019-04-22T03:15:11.566Z,9.00
2019-04-22T03:20:42.837Z,8.90
2019-04-22T03:25:51.511Z,8.90
2019-04-22T03:37:02.451Z,8.70
2019-04-22T03:45:42.711Z,8.60
2019-04-22T03:50:39.758Z,8.60
2019-04-22T03:55:59.813Z,8.60
2019-04-22T04:00:55.095Z,8.50
2019-04-22T04:06:01.636Z,8.50
2019-04-22T04:16:04.700Z,8.40
2019-04-22T04:21:22.155Z,8.40
2019-04-22T04:26:17.713Z,8.40
2019-04-22T04:31:24.862Z,8.40
2019-04-22T04:36:28.764Z,8.40
2019-04-22T04:41:39.529Z,8.50
2019-04-22T04:51:46.943Z,8.50
2019-04-22T04:56:40.280Z,8.50
2019-04-22T05:01:51.001Z,8.60
2019-04-22T05:06:51.775Z,8.60
2019-04-22T05:11:51.965Z,8.60
2019-04-22T05:16:54.216Z,8.60
2019-04-22T05:21:55.976Z,8.70
2019-04-22T05:26:57.472Z,8.80
2019-04-22T05:32:01.387Z,8.90
2019-04-22T05:37:01.210Z,9.00
2019-04-22T05:47:08.340Z,9.50
2019-04-22T05:52:10.361Z,9.80
2019-04-22T05:57:17.936Z,10.10
2019-04-22T06:02:30.878Z,10.40
2019-04-22T06:07:19.704Z,10.80
2019-04-22T06:12:20.851Z,11.30
2019-04-22T06:17:32.080Z,11.90
2019-04-22T06:27:41.325Z,12.60
2019-04-22T06:32:42.135Z,13.00
2019-04-22T06:37:59.812Z,13.20
2019-04-22T06:42:52.392Z,13.70
2019-04-22T06:47:59.108Z,14.70
2019-04-22T06:52:56.912Z,15.60
2019-04-22T06:57:59.865Z,16.40
2019-04-22T07:03:30.107Z,17.00
2019-04-22T07:08:18.304Z,17.50
2019-04-22T07:13:21.251Z,17.80
2019-04-22T07:18:18.075Z,18.10
2019-04-22T07:23:51.231Z,18.30
2019-04-22T07:28:20.525Z,18.50
2019-04-22T07:38:26.988Z,19.10
2019-04-22T07:43:52.802Z,19.40
2019-04-22T07:48:45.171Z,19.80
2019-04-22T07:53:40.547Z,20.10
2019-04-22T07:58:42.138Z,20.40
2019-04-22T08:08:53.586Z,20.70
2019-04-22T08:13:52.744Z,21.30
2019-04-22T08:19:04.201Z,21.60
2019-04-22T08:24:01.508Z,21.90
2019-04-22T08:29:12.341Z,22.30
2019-04-22T08:34:14.181Z,22.70
2019-04-22T08:39:17.185Z,23.20
2019-04-22T08:44:18.164Z,23.70
2019-04-22T08:49:18.301Z,24.10
2019-04-22T08:54:24.617Z,24.50
2019-04-22T08:59:24.782Z,24.80
2019-04-22T09:04:31.189Z,24.90
2019-04-22T09:09:39.138Z,25.00
2019-04-22T09:14:42.190Z,25.30
2019-04-22T09:19:40.388Z,25.50
2019-04-22T09:24:48.611Z,25.70
2019-04-22T09:29:53.632Z,26.10
2019-04-22T09:34:51.250Z,26.50
2019-04-22T09:40:07.358Z,26.60
2019-04-22T09:45:04.695Z,26.80
2019-04-22T09:50:09.985Z,27.00
2019-04-22T10:00:13.834Z,27.20
2019-04-22T10:05:17.421Z,27.30
2019-04-22T10:10:20.106Z,27.60
2019-04-22T10:15:22.425Z,27.60
2019-04-22T10:20:27.107Z,27.30
2019-04-22T10:25:32.168Z,27.20
2019-04-22T10:30:46.170Z,27.20
2019-04-22T10:35:19.212Z,27.60
2019-04-22T10:40:23.709Z,28.10
2019-04-22T10:45:26.073Z,28.50
2019-04-22T10:50:42.918Z,28.80
2019-04-22T10:55:47.754Z,29.10
2019-04-22T11:00:50.299Z,29.30
2019-04-22T11:05:54.132Z,29.30
2019-04-22T11:11:12.266Z,29.50
2019-04-22T11:16:00.553Z,29.50
2019-04-22T11:21:02.770Z,29.20
2019-04-22T11:26:05.873Z,29.20
2019-04-22T11:31:08.253Z,29.60
2019-04-22T11:36:10.237Z,30.20
2019-04-22T11:41:12.640Z,30.30
2019-04-22T11:46:15.664Z,29.90
2019-04-22T11:51:18.212Z,29.70
2019-04-22T11:56:20.825Z,29.60
2019-04-22T12:01:22.742Z,29.90
2019-04-22T12:06:24.212Z,29.60
2019-04-22T12:11:26.269Z,29.30
2019-04-22T12:16:29.493Z,29.40
2019-04-22T12:21:31.298Z,29.70
2019-04-22T12:26:34.540Z,29.80
2019-04-22T12:31:37.559Z,30.20
2019-04-22T12:36:40.389Z,30.30
2019-04-22T12:41:42.453Z,30.50
2019-04-22T12:46:44.181Z,30.50
2019-04-22T12:51:47.194Z,30.30
2019-04-22T12:56:48.972Z,29.80
2019-04-22T13:01:51.189Z,29.90
2019-04-22T13:06:53.594Z,30.10
2019-04-22T13:11:55.350Z,30.40
2019-04-22T13:16:57.755Z,30.40
2019-04-22T13:22:00.757Z,30.50
2019-04-22T13:27:03.286Z,30.40
2019-04-22T13:32:06.753Z,30.60
2019-04-22T13:37:10.762Z,30.60
2019-04-22T13:42:16.146Z,30.90
2019-04-22T13:47:35.028Z,30.70
2019-04-22T13:57:41.476Z,30.70
2019-04-22T14:02:44.837Z,31.00
2019-04-22T14:07:46.716Z,31.10
2019-04-22T14:12:48.802Z,31.10
2019-04-22T14:17:50.321Z,31.30
2019-04-22T14:22:52.738Z,32.00
2019-04-22T14:28:01.933Z,32.10
2019-04-22T14:32:58.564Z,32.00
2019-04-22T14:38:01.329Z,32.00
2019-04-22T14:43:24.728Z,31.80
2019-04-22T14:48:35.682Z,31.70
2019-04-22T14:53:30.817Z,31.60
2019-04-22T14:58:15.098Z,31.40
2019-04-22T15:03:17.631Z,31.40
2019-04-22T15:08:19.256Z,31.60
2019-04-22T15:13:21.184Z,31.60
2019-04-22T15:18:28.337Z,31.60
2019-04-22T15:23:30.997Z,31.60
2019-04-22T15:28:33.411Z,31.70
2019-04-22T15:33:35.237Z,31.60
2019-04-22T15:38:38.098Z,31.00
2019-04-22T15:43:41.479Z,30.60
2019-04-22T15:48:44.092Z,30.50
2019-04-22T15:53:45.672Z,30.70
2019-04-22T15:58:47.964Z,30.60
2019-04-22T16:03:50.287Z,30.10
2019-04-22T16:08:52.139Z,29.40
2019-04-22T16:13:54.730Z,28.90
2019-04-22T16:18:56.412Z,28.20
2019-04-22T16:24:04.541Z,27.50
2019-04-22T16:29:09.484Z,26.90
2019-04-22T16:34:11.383Z,26.50
2019-04-22T16:39:15.263Z,26.30
2019-04-22T16:44:16.692Z,26.20
2019-04-22T16:49:19.314Z,26.00
2019-04-22T16:54:22.136Z,25.80
2019-04-22T16:59:24.807Z,25.60
2019-04-22T17:04:40.892Z,25.40
2019-04-22T17:09:43.812Z,25.10
2019-04-22T17:14:52.729Z,24.80
2019-04-22T17:19:49.323Z,24.60
2019-04-22T17:24:50.873Z,24.40
2019-04-22T17:29:52.491Z,24.20
2019-04-22T17:34:53.953Z,24.10
2019-04-22T17:40:14.676Z,23.90
2019-04-22T17:45:40.416Z,23.80
2019-04-22T17:50:48.464Z,23.70
2019-04-22T17:56:10.242Z,23.50
2019-04-22T18:00:56.691Z,23.30
2019-04-22T18:05:55.462Z,23.10
2019-04-22T18:11:18.727Z,22.90
2019-04-22T18:16:15.037Z,22.70
2019-04-22T18:21:13.431Z,22.50
2019-04-22T18:26:22.871Z,22.20
2019-04-22T18:31:17.424Z,22.00
2019-04-22T18:36:22.709Z,21.70
2019-04-22T18:41:30.357Z,21.40
2019-04-22T18:46:31.479Z,21.20
2019-04-22T18:51:46.362Z,20.90
2019-04-22T18:56:52.503Z,20.70
2019-04-22T19:01:35.488Z,20.50
2019-04-22T19:07:16.892Z,20.20
2019-04-22T19:12:18.055Z,20.10
2019-04-22T19:17:10.871Z,19.90
2019-04-22T19:22:03.521Z,19.90
2019-04-22T19:27:09.214Z,19.70
2019-04-22T19:32:13.712Z,19.70
2019-04-22T19:37:17.381Z,19.50
2019-04-22T19:42:31.114Z,19.40
2019-04-22T19:47:34.106Z,19.20
2019-04-22T19:52:33.379Z,19.00
2019-04-22T19:57:33.963Z,18.90
2019-04-22T20:02:40.942Z,18.80
2019-04-22T20:07:38.207Z,18.70
2019-04-22T20:12:42.435Z,18.50
2019-04-22T20:18:12.506Z,18.30
2019-04-22T20:22:52.476Z,18.20
2019-04-22T20:28:01.595Z,18.10
2019-04-22T20:32:59.462Z,17.90
2019-04-22T20:38:08.929Z,17.60
2019-04-22T20:43:17.604Z,17.30
2019-04-22T20:48:05.782Z,17.00
2019-04-22T20:53:28.021Z,16.90
2019-04-22T20:58:22.435Z,16.70
2019-04-22T21:03:17.473Z,16.60
2019-04-22T21:08:33.828Z,16.70
2019-04-22T21:13:21.915Z,16.80
2019-04-22T21:18:32.170Z,16.70
2019-04-22T21:23:31.107Z,16.60
2019-04-22T21:28:42.989Z,16.50
2019-04-22T21:33:47.177Z,16.30
2019-04-22T21:38:52.052Z,16.20
2019-04-22T21:43:53.742Z,16.10
2019-04-22T21:49:00.189Z,16.00
2019-04-22T21:54:05.485Z,15.80
2019-04-22T21:59:07.963Z,15.70
2019-04-22T22:04:05.045Z,15.50
2019-04-22T22:09:19.469Z,15.40
2019-04-22T22:14:12.538Z,15.40
2019-04-22T22:19:17.781Z,15.40
2019-04-22T22:24:22.642Z,15.40
2019-04-22T22:29:38.008Z,15.50
2019-04-22T22:34:26.744Z,15.60
2019-04-22T22:39:21.791Z,15.80
2019-04-22T22:44:24.146Z,15.80
2019-04-22T22:49:44.793Z,15.80
2019-04-22T22:54:50.125Z,15.80
2019-04-22T22:59:53.061Z,15.80
2019-04-22T23:04:52.210Z,15.90
2019-04-22T23:09:54.812Z,15.90
2019-04-22T23:14:54.127Z,15.90
2019-04-22T23:19:47.586Z,15.90
2019-04-22T23:25:27.489Z,15.90
2019-04-22T23:30:27.563Z,15.80
2019-04-22T23:35:42.397Z,15.70
2019-04-22T23:40:47.756Z,15.60
2019-04-22T23:45:57.928Z,15.60
2019-04-22T23:51:02.867Z,15.50
2019-04-22T23:56:07.962Z,15.50
